sensor_id;sensor_type;location;lat;lon;timestamp;temperature;humidity
51867;DHT22;52862;52.504;13.480;2023-11-21T00:00:17;8.50;99.90
51867;DHT22;52862;52.504;13.480;2023-11-21T00:02:44;8.40;99.90
51867;DHT22;52862;52.504;13.480;2023-11-21T00:05:12;8.30;99.90
51867;DHT22;52862;52.504;13.480;2023-11-21T00:07:41;8.30;99.90
51867;DHT22;52862;52.504;13.480;2023-11-21T00:10:10;7.50;99.90
51867;DHT22;52862;52.504;13.480;2023-11-21T00:12:38;8.50;99.90
51867;DHT22;52862;52.504;13.480;2023-11-21T00:15:05;8.20;99.90
51867;DHT22;52862;52.504;13.480;2023-11-21T00:17:36;8.20;99.90
51867;DHT22;52862;52.504;13.480;2023-11-21T00:20:03;8.10;99.90
51867;DHT22;52862;52.504;13.480;2023-11-21T00:22:32;8.10;99.90
51867;DHT22;52862;52.504;13.480;2023-11-21T00:24:59;8.00;99.90
51867;DHT22;52862;52.504;13.480;2023-11-21T00:27:26;8.00;99.90
51867;DHT22;52862;52.504;13.480;2023-11-21T00:29:52;7.90;99.90
51867;DHT22;52862;52.504;13.480;2023-11-21T00:32:19;7.90;99.90
51867;DHT22;52862;52.504;13.480;2023-11-21T00:34:47;7.90;99.90
51867;DHT22;52862;52.504;13.480;2023-11-21T00:37:14;7.80;99.90
51867;DHT22;52862;52.504;13.480;2023-11-21T00:39:41;7.70;99.90
51867;DHT22;52862;52.504;13.480;2023-11-21T00:42:08;7.70;99.90
51867;DHT22;52862;52.504;13.480;2023-11-21T00:44:37;7.70;99.90
51867;DHT22;52862;52.504;13.480;2023-11-21T00:47:04;7.70;99.90
51867;DHT22;52862;52.504;13.480;2023-11-21T00:49:31;8.30;99.90
51867;DHT22;52862;52.504;13.480;2023-11-21T00:51:59;7.60;99.90
51867;DHT22;52862;52.504;13.480;2023-11-21T00:54:27;7.70;99.90
51867;DHT22;52862;52.504;13.480;2023-11-21T00:56:54;7.60;99.90
51867;DHT22;52862;52.504;13.480;2023-11-21T00:59:21;7.50;99.90
51867;DHT22;52862;52.504;13.480;2023-11-21T01:01:49;7.50;99.90
51867;DHT22;52862;52.504;13.480;2023-11-21T01:04:15;7.50;99.90
51867;DHT22;52862;52.504;13.480;2023-11-21T01:06:42;7.50;99.90
51867;DHT22;52862;52.504;13.480;2023-11-21T01:09:10;7.50;99.90
51867;DHT22;52862;52.504;13.480;2023-11-21T01:11:36;7.30;99.90
51867;DHT22;52862;52.504;13.480;2023-11-21T01:14:04;7.70;99.90
51867;DHT22;52862;52.504;13.480;2023-11-21T01:16:31;7.30;99.90
51867;DHT22;52862;52.504;13.480;2023-11-21T01:18:58;7.20;99.90
51867;DHT22;52862;52.504;13.480;2023-11-21T01:21:25;7.20;99.90
51867;DHT22;52862;52.504;13.480;2023-11-21T01:23:52;7.20;99.90
51867;DHT22;52862;52.504;13.480;2023-11-21T01:26:19;7.20;99.90
51867;DHT22;52862;52.504;13.480;2023-11-21T01:28:46;7.30;99.90
51867;DHT22;52862;52.504;13.480;2023-11-21T01:31:15;7.30;99.90
51867;DHT22;52862;52.504;13.480;2023-11-21T01:33:42;7.30;99.90
51867;DHT22;52862;52.504;13.480;2023-11-21T01:36:09;7.00;99.90
51867;DHT22;52862;52.504;13.480;2023-11-21T01:38:36;7.20;99.90
51867;DHT22;52862;52.504;13.480;2023-11-21T01:41:03;7.20;99.90
51867;DHT22;52862;52.504;13.480;2023-11-21T01:43:31;7.30;99.90
51867;DHT22;52862;52.504;13.480;2023-11-21T01:45:58;7.30;99.90
51867;DHT22;52862;52.504;13.480;2023-11-21T01:48:25;7.30;99.90
51867;DHT22;52862;52.504;13.480;2023-11-21T01:50:52;7.40;99.90
51867;DHT22;52862;52.504;13.480;2023-11-21T01:53:19;7.30;99.90
51867;DHT22;52862;52.504;13.480;2023-11-21T01:55:46;7.20;99.90
51867;DHT22;52862;52.504;13.480;2023-11-21T01:58:13;7.20;99.90
51867;DHT22;52862;52.504;13.480;2023-11-21T02:00:41;7.10;99.90
51867;DHT22;52862;52.504;13.480;2023-11-21T02:03:07;7.20;99.90
51867;DHT22;52862;52.504;13.480;2023-11-21T02:05:36;7.10;99.90
51867;DHT22;52862;52.504;13.480;2023-11-21T02:08:03;7.10;99.90
51867;DHT22;52862;52.504;13.480;2023-11-21T02:10:30;7.10;99.90
51867;DHT22;52862;52.504;13.480;2023-11-21T02:12:57;7.10;99.90
51867;DHT22;52862;52.504;13.480;2023-11-21T02:15:26;7.00;99.90
51867;DHT22;52862;52.504;13.480;2023-11-21T02:17:55;7.10;99.90
51867;DHT22;52862;52.504;13.480;2023-11-21T02:20:24;7.00;99.90
51867;DHT22;52862;52.504;13.480;2023-11-21T02:22:54;6.90;99.90
51867;DHT22;52862;52.504;13.480;2023-11-21T02:25:24;7.00;99.90
51867;DHT22;52862;52.504;13.480;2023-11-21T02:27:50;6.90;99.90
51867;DHT22;52862;52.504;13.480;2023-11-21T02:30:17;6.90;99.90
51867;DHT22;52862;52.504;13.480;2023-11-21T02:32:44;7.00;99.90
51867;DHT22;52862;52.504;13.480;2023-11-21T02:35:15;6.80;99.90
51867;DHT22;52862;52.504;13.480;2023-11-21T02:37:42;6.90;99.90
51867;DHT22;52862;52.504;13.480;2023-11-21T02:40:10;6.90;99.90
51867;DHT22;52862;52.504;13.480;2023-11-21T02:42:39;7.00;99.90
51867;DHT22;52862;52.504;13.480;2023-11-21T02:45:06;6.90;99.90
51867;DHT22;52862;52.504;13.480;2023-11-21T02:47:33;6.90;99.90
51867;DHT22;52862;52.504;13.480;2023-11-21T02:50:00;6.80;99.90
51867;DHT22;52862;52.504;13.480;2023-11-21T02:52:27;6.80;99.90
51867;DHT22;52862;52.504;13.480;2023-11-21T02:54:54;6.90;99.90
51867;DHT22;52862;52.504;13.480;2023-11-21T02:57:21;6.90;99.90
51867;DHT22;52862;52.504;13.480;2023-11-21T02:59:48;7.00;99.90
51867;DHT22;52862;52.504;13.480;2023-11-21T03:02:15;6.90;99.90
51867;DHT22;52862;52.504;13.480;2023-11-21T03:04:42;6.90;99.90
51867;DHT22;52862;52.504;13.480;2023-11-21T03:07:09;6.70;99.90
51867;DHT22;52862;52.504;13.480;2023-11-21T03:09:36;6.90;99.90
51867;DHT22;52862;52.504;13.480;2023-11-21T03:12:03;6.80;99.90
51867;DHT22;52862;52.504;13.480;2023-11-21T03:14:31;6.70;99.90
51867;DHT22;52862;52.504;13.480;2023-11-21T03:16:58;6.70;99.90
51867;DHT22;52862;52.504;13.480;2023-11-21T03:19:25;6.70;99.90
51867;DHT22;52862;52.504;13.480;2023-11-21T03:21:51;6.70;99.90
51867;DHT22;52862;52.504;13.480;2023-11-21T03:24:19;6.70;99.90
51867;DHT22;52862;52.504;13.480;2023-11-21T03:26:46;6.20;99.90
51867;DHT22;52862;52.504;13.480;2023-11-21T03:29:13;6.70;99.90
51867;DHT22;52862;52.504;13.480;2023-11-21T03:31:41;6.60;99.90
51867;DHT22;52862;52.504;13.480;2023-11-21T03:34:15;6.60;99.90
51867;DHT22;52862;52.504;13.480;2023-11-21T03:36:42;6.60;99.90
51867;DHT22;52862;52.504;13.480;2023-11-21T03:39:08;6.60;99.90
51867;DHT22;52862;52.504;13.480;2023-11-21T03:41:35;6.60;99.90
51867;DHT22;52862;52.504;13.480;2023-11-21T03:44:02;6.60;99.90
51867;DHT22;52862;52.504;13.480;2023-11-21T03:46:29;6.60;99.90
51867;DHT22;52862;52.504;13.480;2023-11-21T03:48:56;6.60;99.90
51867;DHT22;52862;52.504;13.480;2023-11-21T03:51:23;6.50;99.90
51867;DHT22;52862;52.504;13.480;2023-11-21T03:53:49;6.50;99.90
51867;DHT22;52862;52.504;13.480;2023-11-21T03:56:16;6.50;99.90
51867;DHT22;52862;52.504;13.480;2023-11-21T03:58:43;6.40;99.90
51867;DHT22;52862;52.504;13.480;2023-11-21T04:01:10;6.40;99.90
51867;DHT22;52862;52.504;13.480;2023-11-21T04:03:36;6.50;99.90
51867;DHT22;52862;52.504;13.480;2023-11-21T04:06:06;6.50;99.90
51867;DHT22;52862;52.504;13.480;2023-11-21T04:08:33;6.60;99.90
51867;DHT22;52862;52.504;13.480;2023-11-21T04:11:00;6.60;99.90
51867;DHT22;52862;52.504;13.480;2023-11-21T04:13:27;6.60;99.90
51867;DHT22;52862;52.504;13.480;2023-11-21T04:15:54;6.60;99.90
51867;DHT22;52862;52.504;13.480;2023-11-21T04:18:21;6.60;99.90
51867;DHT22;52862;52.504;13.480;2023-11-21T04:20:48;5.30;99.90
51867;DHT22;52862;52.504;13.480;2023-11-21T04:23:16;6.50;99.90
51867;DHT22;52862;52.504;13.480;2023-11-21T04:25:43;6.60;99.90
51867;DHT22;52862;52.504;13.480;2023-11-21T04:28:09;6.50;99.90
51867;DHT22;52862;52.504;13.480;2023-11-21T04:30:36;6.60;99.90
51867;DHT22;52862;52.504;13.480;2023-11-21T04:33:03;6.50;99.90
51867;DHT22;52862;52.504;13.480;2023-11-21T04:35:29;6.60;99.90
51867;DHT22;52862;52.504;13.480;2023-11-21T04:37:56;6.40;99.90
51867;DHT22;52862;52.504;13.480;2023-11-21T04:40:25;6.40;99.90
51867;DHT22;52862;52.504;13.480;2023-11-21T04:42:53;6.50;99.90
51867;DHT22;52862;52.504;13.480;2023-11-21T04:45:20;6.50;99.90
51867;DHT22;52862;52.504;13.480;2023-11-21T04:47:47;6.50;99.90
51867;DHT22;52862;52.504;13.480;2023-11-21T04:50:13;6.40;99.90
51867;DHT22;52862;52.504;13.480;2023-11-21T04:52:40;6.40;99.90
51867;DHT22;52862;52.504;13.480;2023-11-21T04:55:07;6.50;99.90
51867;DHT22;52862;52.504;13.480;2023-11-21T04:57:36;6.50;99.90
51867;DHT22;52862;52.504;13.480;2023-11-21T05:00:04;6.50;99.90
51867;DHT22;52862;52.504;13.480;2023-11-21T05:02:32;6.30;99.90
51867;DHT22;52862;52.504;13.480;2023-11-21T05:05:02;6.30;99.90
51867;DHT22;52862;52.504;13.480;2023-11-21T05:07:32;6.20;99.90
51867;DHT22;52862;52.504;13.480;2023-11-21T05:10:01;6.20;99.90
51867;DHT22;52862;52.504;13.480;2023-11-21T05:12:31;6.20;99.90
51867;DHT22;52862;52.504;13.480;2023-11-21T05:15:04;6.30;99.90
51867;DHT22;52862;52.504;13.480;2023-11-21T05:17:34;6.30;99.90
51867;DHT22;52862;52.504;13.480;2023-11-21T05:20:01;6.30;99.90
51867;DHT22;52862;52.504;13.480;2023-11-21T05:22:30;6.30;99.90
51867;DHT22;52862;52.504;13.480;2023-11-21T05:24:56;6.30;99.90
51867;DHT22;52862;52.504;13.480;2023-11-21T05:27:25;6.30;99.90
51867;DHT22;52862;52.504;13.480;2023-11-21T05:29:52;6.20;99.90
51867;DHT22;52862;52.504;13.480;2023-11-21T05:32:19;6.30;99.90
51867;DHT22;52862;52.504;13.480;2023-11-21T05:34:46;6.30;99.90
51867;DHT22;52862;52.504;13.480;2023-11-21T05:37:13;5.80;99.90
51867;DHT22;52862;52.504;13.480;2023-11-21T05:39:39;6.30;99.90
51867;DHT22;52862;52.504;13.480;2023-11-21T05:42:06;6.20;99.90
51867;DHT22;52862;52.504;13.480;2023-11-21T05:44:35;6.20;99.90
51867;DHT22;52862;52.504;13.480;2023-11-21T05:47:01;6.30;99.90
51867;DHT22;52862;52.504;13.480;2023-11-21T05:49:29;6.20;99.90
51867;DHT22;52862;52.504;13.480;2023-11-21T05:51:56;4.80;99.90
51867;DHT22;52862;52.504;13.480;2023-11-21T05:54:25;6.00;99.90
51867;DHT22;52862;52.504;13.480;2023-11-21T05:56:52;6.20;99.90
51867;DHT22;52862;52.504;13.480;2023-11-21T05:59:19;6.20;99.90
51867;DHT22;52862;52.504;13.480;2023-11-21T06:01:49;6.10;99.90
51867;DHT22;52862;52.504;13.480;2023-11-21T06:04:16;6.10;99.90
51867;DHT22;52862;52.504;13.480;2023-11-21T06:06:43;6.00;99.90
51867;DHT22;52862;52.504;13.480;2023-11-21T06:09:10;6.00;99.90
51867;DHT22;52862;52.504;13.480;2023-11-21T06:11:38;5.90;99.90
51867;DHT22;52862;52.504;13.480;2023-11-21T06:14:05;5.80;99.90
51867;DHT22;52862;52.504;13.480;2023-11-21T06:16:34;6.00;99.90
51867;DHT22;52862;52.504;13.480;2023-11-21T06:19:01;6.00;99.90
51867;DHT22;52862;52.504;13.480;2023-11-21T06:21:27;6.10;99.90
51867;DHT22;52862;52.504;13.480;2023-11-21T06:23:55;6.00;99.90
51867;DHT22;52862;52.504;13.480;2023-11-21T06:26:23;6.10;99.90
51867;DHT22;52862;52.504;13.480;2023-11-21T06:28:50;6.10;99.90
51867;DHT22;52862;52.504;13.480;2023-11-21T06:31:17;6.10;99.90
51867;DHT22;52862;52.504;13.480;2023-11-21T06:33:44;6.30;99.90
51867;DHT22;52862;52.504;13.480;2023-11-21T06:36:11;6.20;99.90
51867;DHT22;52862;52.504;13.480;2023-11-21T06:38:37;6.20;99.90
51867;DHT22;52862;52.504;13.480;2023-11-21T06:41:06;6.20;99.90
51867;DHT22;52862;52.504;13.480;2023-11-21T06:43:33;6.20;99.90
51867;DHT22;52862;52.504;13.480;2023-11-21T06:46:01;6.20;99.90
51867;DHT22;52862;52.504;13.480;2023-11-21T06:48:27;6.10;99.90
51867;DHT22;52862;52.504;13.480;2023-11-21T06:50:56;6.20;99.90
51867;DHT22;52862;52.504;13.480;2023-11-21T06:53:23;6.10;99.90
51867;DHT22;52862;52.504;13.480;2023-11-21T06:55:50;6.10;99.90
51867;DHT22;52862;52.504;13.480;2023-11-21T06:58:17;6.00;99.90
51867;DHT22;52862;52.504;13.480;2023-11-21T07:00:44;6.00;99.90
51867;DHT22;52862;52.504;13.480;2023-11-21T07:03:13;6.10;99.90
51867;DHT22;52862;52.504;13.480;2023-11-21T07:05:40;6.10;99.90
51867;DHT22;52862;52.504;13.480;2023-11-21T07:08:07;6.30;99.90
51867;DHT22;52862;52.504;13.480;2023-11-21T07:10:33;6.10;99.90
51867;DHT22;52862;52.504;13.480;2023-11-21T07:13:02;6.10;99.90
51867;DHT22;52862;52.504;13.480;2023-11-21T07:15:30;6.10;99.90
51867;DHT22;52862;52.504;13.480;2023-11-21T07:17:56;6.10;99.90
51867;DHT22;52862;52.504;13.480;2023-11-21T07:20:23;5.70;99.90
51867;DHT22;52862;52.504;13.480;2023-11-21T07:22:50;6.10;99.90
51867;DHT22;52862;52.504;13.480;2023-11-21T07:25:17;6.30;99.90
51867;DHT22;52862;52.504;13.480;2023-11-21T07:27:44;6.00;99.90
51867;DHT22;52862;52.504;13.480;2023-11-21T07:30:12;6.00;99.90
51867;DHT22;52862;52.504;13.480;2023-11-21T07:32:40;6.00;99.90
51867;DHT22;52862;52.504;13.480;2023-11-21T07:35:08;6.00;99.90
51867;DHT22;52862;52.504;13.480;2023-11-21T07:37:35;5.90;99.90
51867;DHT22;52862;52.504;13.480;2023-11-21T07:40:03;5.90;99.90
51867;DHT22;52862;52.504;13.480;2023-11-21T07:42:30;5.90;99.90
51867;DHT22;52862;52.504;13.480;2023-11-21T07:44:57;5.80;99.90
51867;DHT22;52862;52.504;13.480;2023-11-21T07:47:24;5.90;99.90
51867;DHT22;52862;52.504;13.480;2023-11-21T07:49:54;5.80;99.90
51867;DHT22;52862;52.504;13.480;2023-11-21T07:52:22;5.90;99.90
51867;DHT22;52862;52.504;13.480;2023-11-21T07:54:49;5.90;99.90
51867;DHT22;52862;52.504;13.480;2023-11-21T07:57:15;5.80;99.90
51867;DHT22;52862;52.504;13.480;2023-11-21T07:59:42;5.90;99.90
51867;DHT22;52862;52.504;13.480;2023-11-21T08:02:09;5.90;99.90
51867;DHT22;52862;52.504;13.480;2023-11-21T08:04:36;5.90;99.90
51867;DHT22;52862;52.504;13.480;2023-11-21T08:07:03;5.90;99.90
51867;DHT22;52862;52.504;13.480;2023-11-21T08:09:30;5.90;99.90
51867;DHT22;52862;52.504;13.480;2023-11-21T08:11:57;5.90;99.90
51867;DHT22;52862;52.504;13.480;2023-11-21T08:14:26;5.90;99.90
51867;DHT22;52862;52.504;13.480;2023-11-21T08:16:53;5.90;99.90
51867;DHT22;52862;52.504;13.480;2023-11-21T08:19:23;6.40;99.90
51867;DHT22;52862;52.504;13.480;2023-11-21T08:21:51;6.00;99.90
51867;DHT22;52862;52.504;13.480;2023-11-21T08:24:21;6.00;99.90
51867;DHT22;52862;52.504;13.480;2023-11-21T08:26:48;6.00;99.90
51867;DHT22;52862;52.504;13.480;2023-11-21T08:29:15;5.90;99.90
51867;DHT22;52862;52.504;13.480;2023-11-21T08:31:42;5.90;99.90
51867;DHT22;52862;52.504;13.480;2023-11-21T08:34:10;5.90;99.90
51867;DHT22;52862;52.504;13.480;2023-11-21T08:36:41;5.80;99.90
51867;DHT22;52862;52.504;13.480;2023-11-21T08:39:08;6.00;99.90
51867;DHT22;52862;52.504;13.480;2023-11-21T08:41:36;6.00;99.90
51867;DHT22;52862;52.504;13.480;2023-11-21T08:44:05;6.00;99.90
51867;DHT22;52862;52.504;13.480;2023-11-21T08:46:33;6.10;99.90
51867;DHT22;52862;52.504;13.480;2023-11-21T08:49:01;6.00;99.90
51867;DHT22;52862;52.504;13.480;2023-11-21T08:51:28;6.10;99.90
51867;DHT22;52862;52.504;13.480;2023-11-21T08:53:55;6.00;99.90
51867;DHT22;52862;52.504;13.480;2023-11-21T08:56:25;6.00;99.90
51867;DHT22;52862;52.504;13.480;2023-11-21T08:58:52;5.90;99.90
51867;DHT22;52862;52.504;13.480;2023-11-21T09:01:19;5.80;99.90
51867;DHT22;52862;52.504;13.480;2023-11-21T09:03:47;5.80;99.90
51867;DHT22;52862;52.504;13.480;2023-11-21T09:06:17;5.70;99.90
51867;DHT22;52862;52.504;13.480;2023-11-21T09:08:44;5.80;99.90
51867;DHT22;52862;52.504;13.480;2023-11-21T09:11:11;5.90;99.90
51867;DHT22;52862;52.504;13.480;2023-11-21T09:13:38;5.80;99.90
51867;DHT22;52862;52.504;13.480;2023-11-21T09:16:06;5.90;99.90
51867;DHT22;52862;52.504;13.480;2023-11-21T09:18:33;5.90;99.90
51867;DHT22;52862;52.504;13.480;2023-11-21T09:21:00;5.80;99.90
51867;DHT22;52862;52.504;13.480;2023-11-21T09:23:27;5.70;99.90
51867;DHT22;52862;52.504;13.480;2023-11-21T09:25:53;5.60;99.90
51867;DHT22;52862;52.504;13.480;2023-11-21T09:28:23;5.50;99.90
51867;DHT22;52862;52.504;13.480;2023-11-21T09:30:49;5.70;99.90
51867;DHT22;52862;52.504;13.480;2023-11-21T09:33:17;5.60;99.90
51867;DHT22;52862;52.504;13.480;2023-11-21T09:35:44;5.70;99.90
51867;DHT22;52862;52.504;13.480;2023-11-21T09:38:11;5.70;99.90
51867;DHT22;52862;52.504;13.480;2023-11-21T09:40:38;5.70;99.90
51867;DHT22;52862;52.504;13.480;2023-11-21T09:43:06;5.70;99.90
51867;DHT22;52862;52.504;13.480;2023-11-21T09:45:35;5.80;99.90
51867;DHT22;52862;52.504;13.480;2023-11-21T09:48:02;5.80;99.90
51867;DHT22;52862;52.504;13.480;2023-11-21T09:50:31;5.90;99.90
51867;DHT22;52862;52.504;13.480;2023-11-21T09:53:08;5.90;99.90
51867;DHT22;52862;52.504;13.480;2023-11-21T09:55:37;6.00;99.90
51867;DHT22;52862;52.504;13.480;2023-11-21T09:58:06;6.00;99.90
51867;DHT22;52862;52.504;13.480;2023-11-21T10:00:40;5.90;99.90
51867;DHT22;52862;52.504;13.480;2023-11-21T10:03:07;5.80;99.90
51867;DHT22;52862;52.504;13.480;2023-11-21T10:05:35;5.70;99.90
51867;DHT22;52862;52.504;13.480;2023-11-21T10:08:04;5.90;99.90
51867;DHT22;52862;52.504;13.480;2023-11-21T10:10:33;5.80;99.90
51867;DHT22;52862;52.504;13.480;2023-11-21T10:13:02;5.80;99.90
51867;DHT22;52862;52.504;13.480;2023-11-21T10:15:34;5.80;99.90
51867;DHT22;52862;52.504;13.480;2023-11-21T10:18:02;5.80;99.90
51867;DHT22;52862;52.504;13.480;2023-11-21T10:20:30;5.80;99.90
51867;DHT22;52862;52.504;13.480;2023-11-21T10:22:59;5.70;99.90
51867;DHT22;52862;52.504;13.480;2023-11-21T10:25:28;5.80;99.90
51867;DHT22;52862;52.504;13.480;2023-11-21T10:27:58;5.80;99.90
51867;DHT22;52862;52.504;13.480;2023-11-21T10:30:30;5.90;99.90
51867;DHT22;52862;52.504;13.480;2023-11-21T10:32:59;6.00;99.90
51867;DHT22;52862;52.504;13.480;2023-11-21T10:35:38;6.10;99.90
51867;DHT22;52862;52.504;13.480;2023-11-21T10:38:06;6.20;99.90
51867;DHT22;52862;52.504;13.480;2023-11-21T10:40:38;6.30;99.90
51867;DHT22;52862;52.504;13.480;2023-11-21T10:43:06;6.20;99.90
51867;DHT22;52862;52.504;13.480;2023-11-21T10:45:36;7.20;99.90
51867;DHT22;52862;52.504;13.480;2023-11-21T10:48:05;6.20;99.90
51867;DHT22;52862;52.504;13.480;2023-11-21T10:50:34;5.50;99.90
51867;DHT22;52862;52.504;13.480;2023-11-21T10:53:02;5.80;99.90
51867;DHT22;52862;52.504;13.480;2023-11-21T10:55:30;5.70;99.90
51867;DHT22;52862;52.504;13.480;2023-11-21T10:57:59;5.70;99.90
51867;DHT22;52862;52.504;13.480;2023-11-21T11:00:28;5.60;99.90
51867;DHT22;52862;52.504;13.480;2023-11-21T11:02:57;5.60;99.90
51867;DHT22;52862;52.504;13.480;2023-11-21T11:05:26;5.30;99.90
51867;DHT22;52862;52.504;13.480;2023-11-21T11:07:58;5.50;99.90
51867;DHT22;52862;52.504;13.480;2023-11-21T11:10:29;5.60;99.90
51867;DHT22;52862;52.504;13.480;2023-11-21T11:12:56;5.60;99.90
51867;DHT22;52862;52.504;13.480;2023-11-21T11:15:24;5.00;99.90
51867;DHT22;52862;52.504;13.480;2023-11-21T11:17:52;5.60;99.90
51867;DHT22;52862;52.504;13.480;2023-11-21T11:20:24;5.70;99.90
51867;DHT22;52862;52.504;13.480;2023-11-21T11:23:04;5.70;99.90
51867;DHT22;52862;52.504;13.480;2023-11-21T11:25:50;5.50;99.90
51867;DHT22;52862;52.504;13.480;2023-11-21T11:28:22;5.50;99.90
51867;DHT22;52862;52.504;13.480;2023-11-21T11:31:04;5.40;99.90
51867;DHT22;52862;52.504;13.480;2023-11-21T11:33:37;5.40;99.90
51867;DHT22;52862;52.504;13.480;2023-11-21T11:36:08;5.40;99.90
51867;DHT22;52862;52.504;13.480;2023-11-21T11:38:37;5.30;99.90
51867;DHT22;52862;52.504;13.480;2023-11-21T11:41:07;5.20;99.90
51867;DHT22;52862;52.504;13.480;2023-11-21T11:43:35;5.10;99.90
51867;DHT22;52862;52.504;13.480;2023-11-21T11:46:11;5.20;99.90
51867;DHT22;52862;52.504;13.480;2023-11-21T11:48:39;5.20;99.90
51867;DHT22;52862;52.504;13.480;2023-11-21T11:51:11;5.30;99.90
51867;DHT22;52862;52.504;13.480;2023-11-21T11:53:41;5.30;99.90
51867;DHT22;52862;52.504;13.480;2023-11-21T11:56:26;5.30;99.90
51867;DHT22;52862;52.504;13.480;2023-11-21T11:58:55;5.30;99.90
51867;DHT22;52862;52.504;13.480;2023-11-21T12:01:24;5.40;99.90
51867;DHT22;52862;52.504;13.480;2023-11-21T12:04:23;5.30;99.90
51867;DHT22;52862;52.504;13.480;2023-11-21T12:06:52;5.30;99.90
51867;DHT22;52862;52.504;13.480;2023-11-21T12:09:20;5.30;99.90
51867;DHT22;52862;52.504;13.480;2023-11-21T12:11:48;5.30;99.90
51867;DHT22;52862;52.504;13.480;2023-11-21T12:14:15;5.30;99.90
51867;DHT22;52862;52.504;13.480;2023-11-21T12:16:43;5.30;99.90
51867;DHT22;52862;52.504;13.480;2023-11-21T12:19:12;5.30;99.90
51867;DHT22;52862;52.504;13.480;2023-11-21T12:21:39;5.30;99.90
51867;DHT22;52862;52.504;13.480;2023-11-21T12:24:07;5.40;99.90
51867;DHT22;52862;52.504;13.480;2023-11-21T12:26:37;5.30;99.90
51867;DHT22;52862;52.504;13.480;2023-11-21T12:29:05;5.40;99.90
51867;DHT22;52862;52.504;13.480;2023-11-21T12:31:33;5.30;99.90
51867;DHT22;52862;52.504;13.480;2023-11-21T12:34:01;5.30;99.90
51867;DHT22;52862;52.504;13.480;2023-11-21T12:36:29;5.20;99.90
51867;DHT22;52862;52.504;13.480;2023-11-21T12:38:56;5.20;99.90
51867;DHT22;52862;52.504;13.480;2023-11-21T12:41:23;4.80;99.90
51867;DHT22;52862;52.504;13.480;2023-11-21T12:43:50;5.00;99.90
51867;DHT22;52862;52.504;13.480;2023-11-21T12:46:18;5.10;99.90
51867;DHT22;52862;52.504;13.480;2023-11-21T12:48:46;5.10;99.90
51867;DHT22;52862;52.504;13.480;2023-11-21T12:51:13;5.10;99.90
51867;DHT22;52862;52.504;13.480;2023-11-21T12:53:42;5.40;99.90
51867;DHT22;52862;52.504;13.480;2023-11-21T12:56:11;5.20;99.90
51867;DHT22;52862;52.504;13.480;2023-11-21T12:58:39;5.40;99.90
51867;DHT22;52862;52.504;13.480;2023-11-21T13:01:08;5.20;99.90
51867;DHT22;52862;52.504;13.480;2023-11-21T13:03:38;5.10;99.90
51867;DHT22;52862;52.504;13.480;2023-11-21T13:06:07;5.10;99.90
51867;DHT22;52862;52.504;13.480;2023-11-21T13:08:34;5.10;99.90
51867;DHT22;52862;52.504;13.480;2023-11-21T13:11:01;5.20;99.90
51867;DHT22;52862;52.504;13.480;2023-11-21T13:13:29;5.20;99.90
51867;DHT22;52862;52.504;13.480;2023-11-21T13:15:57;5.20;99.90
51867;DHT22;52862;52.504;13.480;2023-11-21T13:18:28;5.10;99.90
51867;DHT22;52862;52.504;13.480;2023-11-21T13:20:56;5.00;99.90
51867;DHT22;52862;52.504;13.480;2023-11-21T13:23:25;5.00;99.90
51867;DHT22;52862;52.504;13.480;2023-11-21T13:25:52;4.90;99.90
51867;DHT22;52862;52.504;13.480;2023-11-21T13:28:30;4.90;99.90
51867;DHT22;52862;52.504;13.480;2023-11-21T13:31:00;5.00;99.90
51867;DHT22;52862;52.504;13.480;2023-11-21T13:33:29;4.80;99.90
51867;DHT22;52862;52.504;13.480;2023-11-21T13:36:01;4.90;99.90
51867;DHT22;52862;52.504;13.480;2023-11-21T13:38:28;5.00;99.90
51867;DHT22;52862;52.504;13.480;2023-11-21T13:41:00;4.80;99.90
51867;DHT22;52862;52.504;13.480;2023-11-21T13:43:27;4.70;99.90
51867;DHT22;52862;52.504;13.480;2023-11-21T13:45:55;4.70;99.90
51867;DHT22;52862;52.504;13.480;2023-11-21T13:48:28;4.60;99.90
51867;DHT22;52862;52.504;13.480;2023-11-21T13:51:02;4.60;99.90
51867;DHT22;52862;52.504;13.480;2023-11-21T13:53:39;4.60;99.90
51867;DHT22;52862;52.504;13.480;2023-11-21T13:56:09;4.60;99.90
51867;DHT22;52862;52.504;13.480;2023-11-21T13:58:36;4.60;99.90
51867;DHT22;52862;52.504;13.480;2023-11-21T14:01:11;4.40;99.90
51867;DHT22;52862;52.504;13.480;2023-11-21T14:03:55;4.40;99.90
51867;DHT22;52862;52.504;13.480;2023-11-21T14:06:29;4.60;99.90
51867;DHT22;52862;52.504;13.480;2023-11-21T14:09:01;4.30;99.90
51867;DHT22;52862;52.504;13.480;2023-11-21T14:11:33;6.20;99.90
51867;DHT22;52862;52.504;13.480;2023-11-21T14:14:14;4.40;99.90
51867;DHT22;52862;52.504;13.480;2023-11-21T14:16:43;4.20;99.90
51867;DHT22;52862;52.504;13.480;2023-11-21T14:19:11;4.20;99.90
51867;DHT22;52862;52.504;13.480;2023-11-21T14:21:42;4.10;99.90
51867;DHT22;52862;52.504;13.480;2023-11-21T14:24:10;4.10;99.90
51867;DHT22;52862;52.504;13.480;2023-11-21T14:26:40;4.10;99.90
51867;DHT22;52862;52.504;13.480;2023-11-21T14:29:08;4.20;99.90
51867;DHT22;52862;52.504;13.480;2023-11-21T14:31:39;4.10;99.90
51867;DHT22;52862;52.504;13.480;2023-11-21T14:34:07;4.10;99.90
51867;DHT22;52862;52.504;13.480;2023-11-21T14:36:35;3.90;99.90
51867;DHT22;52862;52.504;13.480;2023-11-21T14:39:06;3.90;99.90
51867;DHT22;52862;52.504;13.480;2023-11-21T14:41:39;3.90;99.90
51867;DHT22;52862;52.504;13.480;2023-11-21T14:44:07;3.90;99.90
51867;DHT22;52862;52.504;13.480;2023-11-21T14:46:38;4.00;99.90
51867;DHT22;52862;52.504;13.480;2023-11-21T14:49:06;4.60;99.90
51867;DHT22;52862;52.504;13.480;2023-11-21T14:51:46;4.00;99.90
51867;DHT22;52862;52.504;13.480;2023-11-21T14:54:28;4.00;99.90
51867;DHT22;52862;52.504;13.480;2023-11-21T14:57:08;4.00;99.90
51867;DHT22;52862;52.504;13.480;2023-11-21T14:59:42;3.60;99.90
51867;DHT22;52862;52.504;13.480;2023-11-21T15:02:09;3.90;99.90
51867;DHT22;52862;52.504;13.480;2023-11-21T15:04:42;3.70;99.90
51867;DHT22;52862;52.504;13.480;2023-11-21T15:07:10;3.60;99.90
51867;DHT22;52862;52.504;13.480;2023-11-21T15:09:39;3.60;99.90
51867;DHT22;52862;52.504;13.480;2023-11-21T15:12:09;3.60;99.90
51867;DHT22;52862;52.504;13.480;2023-11-21T15:14:45;3.70;99.90
51867;DHT22;52862;52.504;13.480;2023-11-21T15:17:16;4.00;99.90
51867;DHT22;52862;52.504;13.480;2023-11-21T15:19:50;3.80;99.90
51867;DHT22;52862;52.504;13.480;2023-11-21T15:22:21;3.80;99.90
51867;DHT22;52862;52.504;13.480;2023-11-21T15:25:05;3.70;99.90
51867;DHT22;52862;52.504;13.480;2023-11-21T15:27:36;3.80;99.90
51867;DHT22;52862;52.504;13.480;2023-11-21T15:30:13;3.70;99.90
51867;DHT22;52862;52.504;13.480;2023-11-21T15:32:40;3.60;99.90
51867;DHT22;52862;52.504;13.480;2023-11-21T15:35:08;3.70;99.90
51867;DHT22;52862;52.504;13.480;2023-11-21T15:37:39;3.70;99.90